createdAt,value
2022-09-28T00:01:44.631Z,0.40
2022-09-28T00:04:12.169Z,0.35
2022-09-28T00:06:39.664Z,0.30
2022-09-28T00:09:06.956Z,0.35
2022-09-28T00:11:34.185Z,0.60
2022-09-28T00:14:07.250Z,0.43
2022-09-28T00:16:35.771Z,0.40
2022-09-28T00:19:03.989Z,0.40
2022-09-28T00:21:32.639Z,0.45
2022-09-28T00:24:12.932Z,0.45
2022-09-28T00:26:41.462Z,0.25
2022-09-28T00:29:13.768Z,0.40
2022-09-28T00:31:40.956Z,0.40
2022-09-28T00:34:08.077Z,0.50
2022-09-28T00:36:35.224Z,0.65
2022-09-28T00:39:09.051Z,0.30
2022-09-28T00:44:23.023Z,0.25
2022-09-28T00:46:59.071Z,0.20
2022-09-28T00:49:34.687Z,0.30
2022-09-28T00:52:02.356Z,0.50
2022-09-28T00:54:29.465Z,0.40
2022-09-28T00:56:56.682Z,0.30
2022-09-28T00:59:24.788Z,0.20
2022-09-28T01:01:52.151Z,0.30
2022-09-28T01:04:19.362Z,0.20
2022-09-28T01:06:47.556Z,0.40
2022-09-28T01:09:15.449Z,0.30
2022-09-28T01:11:43.012Z,0.30
2022-09-28T01:14:11.994Z,0.25
2022-09-28T01:16:39.173Z,0.38
2022-09-28T01:19:12.840Z,0.60
2022-09-28T01:21:48.932Z,0.40
2022-09-28T01:24:34.609Z,0.40
2022-09-28T01:27:04.699Z,0.38
2022-09-28T01:29:44.925Z,0.50
2022-09-28T01:32:15.056Z,0.40
2022-09-28T01:34:44.811Z,0.40
2022-09-28T01:37:14.108Z,0.40
2022-09-28T01:39:43.299Z,0.30
2022-09-28T01:42:13.803Z,0.43
2022-09-28T01:44:42.219Z,0.30
2022-09-28T01:47:11.559Z,0.50
2022-09-28T01:49:41.477Z,0.40
2022-09-28T01:52:14.861Z,0.60
2022-09-28T01:54:44.655Z,0.30
2022-09-28T01:57:15.980Z,0.40
2022-09-28T01:59:45.939Z,0.30
2022-09-28T02:02:15.169Z,0.30
2022-09-28T02:04:50.441Z,0.30
2022-09-28T02:07:21.279Z,0.50
2022-09-28T02:09:56.027Z,0.50
2022-09-28T02:12:30.699Z,0.40
2022-09-28T02:15:02.641Z,0.35
2022-09-28T02:17:29.830Z,0.38
2022-09-28T02:19:57.002Z,0.40
2022-09-28T02:22:27.211Z,0.30
2022-09-28T02:25:00.008Z,0.30
2022-09-28T02:27:46.055Z,0.43
2022-09-28T02:30:13.310Z,0.30
2022-09-28T02:32:42.711Z,0.32
2022-09-28T02:35:11.580Z,0.52
2022-09-28T02:37:39.706Z,0.40
2022-09-28T02:40:13.668Z,0.30
2022-09-28T02:42:48.066Z,0.40
2022-09-28T02:45:15.357Z,0.30
2022-09-28T02:47:42.435Z,0.50
2022-09-28T02:50:33.289Z,0.40
2022-09-28T02:53:39.014Z,0.35
2022-09-28T02:56:24.416Z,0.43
2022-09-28T03:01:28.111Z,0.32
2022-09-28T03:03:58.215Z,0.40
2022-09-28T03:06:32.889Z,0.40
2022-09-28T03:09:09.860Z,0.60
2022-09-28T03:11:44.078Z,0.50
2022-09-28T03:14:11.736Z,0.50
2022-09-28T03:16:38.980Z,0.40
2022-09-28T03:19:06.140Z,0.40
2022-09-28T03:21:33.251Z,0.40
2022-09-28T03:24:00.511Z,0.40
2022-09-28T03:26:27.746Z,0.30
2022-09-28T03:28:54.811Z,0.40
2022-09-28T03:31:22.010Z,0.40
2022-09-28T03:33:49.123Z,0.43
2022-09-28T03:36:16.303Z,0.30
2022-09-28T03:38:43.511Z,0.30
2022-09-28T03:41:10.737Z,0.50
2022-09-28T03:43:37.857Z,0.30
2022-09-28T03:46:05.142Z,0.35
2022-09-28T03:48:33.370Z,0.30
2022-09-28T03:51:02.359Z,0.32
2022-09-28T03:53:29.832Z,0.30
2022-09-28T03:55:57.522Z,0.20
2022-09-28T03:58:24.646Z,0.50
2022-09-28T04:00:52.171Z,0.20
2022-09-28T04:03:19.333Z,0.30
2022-09-28T04:05:53.066Z,0.40
2022-09-28T04:08:20.638Z,0.30
2022-09-28T04:10:47.772Z,0.38
2022-09-28T04:13:15.122Z,1.02
2022-09-28T04:15:42.460Z,0.35
2022-09-28T04:18:13.617Z,0.40
2022-09-28T04:20:41.546Z,0.30
2022-09-28T04:23:08.816Z,0.30
2022-09-28T04:25:35.907Z,0.28
2022-09-28T04:28:21.720Z,0.30
2022-09-28T04:30:48.910Z,0.20
2022-09-28T04:33:16.143Z,0.35
2022-09-28T04:35:43.347Z,0.40
2022-09-28T04:38:10.498Z,0.40
2022-09-28T04:40:37.638Z,0.40
2022-09-28T04:43:04.903Z,0.15
2022-09-28T04:45:32.068Z,0.40
2022-09-28T04:47:59.238Z,0.60
2022-09-28T04:50:26.555Z,0.22
2022-09-28T04:52:53.680Z,0.25
2022-09-28T04:55:20.901Z,0.22
2022-09-28T04:57:48.190Z,0.93
2022-09-28T05:00:15.407Z,0.50
2022-09-28T05:02:42.598Z,0.60
2022-09-28T05:06:16.010Z,0.45
2022-09-28T05:09:23.151Z,0.50
2022-09-28T05:12:00.664Z,0.65
2022-09-28T05:15:01.823Z,0.75
2022-09-28T05:18:15.758Z,0.60
2022-09-28T05:20:59.846Z,0.43
2022-09-28T05:30:07.312Z,0.80
2022-09-28T05:35:59.033Z,0.50
2022-09-28T05:42:15.461Z,0.75
2022-09-28T05:45:37.137Z,0.57
2022-09-28T06:01:10.687Z,1.10
2022-09-28T06:06:43.655Z,0.43
2022-09-28T06:12:12.450Z,0.93
2022-09-28T06:21:16.899Z,1.00
2022-09-28T06:24:00.701Z,1.17
2022-09-28T06:26:55.218Z,0.77
2022-09-28T06:29:51.970Z,0.70
2022-09-28T06:32:31.063Z,0.90
2022-09-28T06:35:01.957Z,0.77
2022-09-28T06:38:05.555Z,0.83
2022-09-28T06:40:59.846Z,0.70
2022-09-28T06:43:55.215Z,0.57
2022-09-28T06:46:33.198Z,0.50
2022-09-28T06:49:48.387Z,0.50
2022-09-28T06:55:38.927Z,0.47
2022-09-28T06:58:38.115Z,0.50
2022-09-28T07:01:14.765Z,0.38
2022-09-28T07:07:06.341Z,0.70
2022-09-28T07:12:51.370Z,0.50
2022-09-28T07:16:09.007Z,0.45
2022-09-28T07:19:44.280Z,0.50
2022-09-28T07:22:05.792Z,0.75
2022-09-28T07:24:39.014Z,0.63
2022-09-28T07:30:13.578Z,0.60
2022-09-28T07:36:16.043Z,0.65
2022-09-28T07:39:15.004Z,0.50
2022-09-28T07:42:15.322Z,0.60
2022-09-28T07:45:24.162Z,0.60
2022-09-28T07:48:59.861Z,0.50
2022-09-28T07:51:29.928Z,0.30
2022-09-28T07:54:06.781Z,0.50
2022-09-28T07:57:01.603Z,0.50
2022-09-28T07:59:40.322Z,0.40
2022-09-28T08:05:55.997Z,0.40
2022-09-28T08:08:48.022Z,0.30
2022-09-28T08:12:10.615Z,0.25
2022-09-28T08:17:19.433Z,0.30
2022-09-28T08:20:36.603Z,0.57
2022-09-28T08:23:29.512Z,0.32
2022-09-28T08:29:27.490Z,0.30
2022-09-28T08:35:50.376Z,0.50
2022-09-28T08:38:28.326Z,0.30
2022-09-28T08:41:46.191Z,0.32
2022-09-28T08:47:57.318Z,0.40
2022-09-28T08:50:46.279Z,0.40
2022-09-28T08:54:05.809Z,0.50
2022-09-28T09:02:54.696Z,0.60
2022-09-28T09:05:40.959Z,0.50
2022-09-28T09:08:35.994Z,0.55
2022-09-28T09:11:26.121Z,0.32
2022-09-28T09:14:21.188Z,0.60
2022-09-28T09:17:16.009Z,0.60
2022-09-28T09:20:06.283Z,0.60
2022-09-28T09:22:50.895Z,0.60
2022-09-28T09:25:33.367Z,0.73
2022-09-28T09:28:48.655Z,0.40
2022-09-28T09:34:52.825Z,0.40
2022-09-28T09:38:17.761Z,0.40
2022-09-28T09:40:52.165Z,0.43
2022-09-28T09:43:59.026Z,0.63
2022-09-28T09:46:50.047Z,0.50
2022-09-28T09:49:36.109Z,0.52
2022-09-28T09:58:48.256Z,0.57
2022-09-28T10:01:33.303Z,0.55
2022-09-28T10:04:18.365Z,0.82
2022-09-28T10:10:41.769Z,0.50
2022-09-28T10:16:32.486Z,0.40
2022-09-28T10:19:19.421Z,0.52
2022-09-28T10:22:03.242Z,0.63
2022-09-28T10:24:49.276Z,0.52
2022-09-28T10:27:50.565Z,0.82
2022-09-28T10:30:55.189Z,0.57
2022-09-28T10:33:39.936Z,0.50
2022-09-28T10:39:56.410Z,0.80
2022-09-28T10:43:02.492Z,0.73
2022-09-28T10:46:12.342Z,0.63
2022-09-28T10:49:21.719Z,0.70
2022-09-28T10:52:17.739Z,0.65
2022-09-28T10:58:04.343Z,0.70
2022-09-28T11:00:51.702Z,0.90
2022-09-28T11:03:42.264Z,0.63
2022-09-28T11:06:09.551Z,4.38
2022-09-28T11:08:38.205Z,0.85
2022-09-28T11:11:12.780Z,1.13
2022-09-28T11:13:41.635Z,0.88
2022-09-28T11:16:09.045Z,0.85
2022-09-28T11:18:36.192Z,0.60
2022-09-28T11:21:17.397Z,0.63
2022-09-28T11:23:56.191Z,0.77
2022-09-28T11:26:26.150Z,0.70
2022-09-28T11:28:53.826Z,1.10
2022-09-28T11:31:28.171Z,0.70
2022-09-28T11:34:14.386Z,0.70
2022-09-28T11:36:54.993Z,1.30
2022-09-28T11:39:41.651Z,0.90
2022-09-28T11:42:11.015Z,0.80
2022-09-28T11:44:44.772Z,0.93
2022-09-28T11:47:27.400Z,1.98
2022-09-28T11:50:07.309Z,1.15
2022-09-28T11:52:37.616Z,0.90
2022-09-28T11:55:10.894Z,1.20
2022-09-28T11:57:39.343Z,0.95
2022-09-28T12:00:10.383Z,1.20
2022-09-28T12:02:43.360Z,1.10
2022-09-28T12:05:20.878Z,1.00
2022-09-28T12:07:50.783Z,0.95
2022-09-28T12:10:21.004Z,1.02
2022-09-28T12:12:55.050Z,1.10
2022-09-28T12:15:24.229Z,0.90
2022-09-28T12:17:54.834Z,1.15
2022-09-28T12:20:22.212Z,1.60
2022-09-28T12:22:55.502Z,1.23
2022-09-28T12:25:23.842Z,1.38
2022-09-28T12:27:54.932Z,1.10
2022-09-28T12:30:25.822Z,1.00
2022-09-28T12:33:05.278Z,1.05
2022-09-28T12:36:03.089Z,1.30
2022-09-28T12:38:50.845Z,1.50
2022-09-28T12:41:24.982Z,1.17
2022-09-28T12:44:10.635Z,1.10
2022-09-28T12:46:56.583Z,2.30
2022-09-28T12:52:16.432Z,1.00
2022-09-28T12:54:53.225Z,1.15
2022-09-28T12:57:20.362Z,1.05
2022-09-28T13:00:01.043Z,1.15
2022-09-28T13:02:31.111Z,1.27
2022-09-28T13:05:01.409Z,1.40
2022-09-28T13:07:28.529Z,1.10
2022-09-28T13:10:06.546Z,1.33
2022-09-28T13:12:53.036Z,0.75
2022-09-28T13:15:39.008Z,1.48
2022-09-28T13:18:19.823Z,1.20
2022-09-28T13:20:51.432Z,1.20
2022-09-28T13:23:27.002Z,1.50
2022-09-28T13:25:57.815Z,1.55
2022-09-28T13:28:43.414Z,1.25
2022-09-28T13:31:12.702Z,1.20
2022-09-28T13:33:41.470Z,1.20
2022-09-28T13:36:27.063Z,1.60
2022-09-28T13:38:55.149Z,1.40
2022-09-28T13:41:28.896Z,1.20
2022-09-28T13:44:07.968Z,0.98
2022-09-28T13:46:35.090Z,1.33
2022-09-28T13:49:21.144Z,1.20
2022-09-28T13:52:07.093Z,1.30
2022-09-28T13:54:46.490Z,0.90
2022-09-28T13:57:33.859Z,0.82
2022-09-28T14:00:16.107Z,1.23
2022-09-28T14:02:43.327Z,1.20
2022-09-28T14:05:29.624Z,1.00
2022-09-28T14:07:58.393Z,1.55
2022-09-28T14:10:45.803Z,2.05
2022-09-28T14:13:12.979Z,1.55
2022-09-28T14:15:45.079Z,1.38
2022-09-28T14:18:24.218Z,1.40
2022-09-28T14:21:14.440Z,1.33
2022-09-28T14:23:56.356Z,1.55
2022-09-28T14:26:26.758Z,1.67
2022-09-28T14:29:08.033Z,1.30
2022-09-28T14:31:41.187Z,1.20
2022-09-28T14:34:24.448Z,1.25
2022-09-28T14:37:10.599Z,1.40
2022-09-28T14:39:57.654Z,1.67
2022-09-28T14:42:26.088Z,1.60
2022-09-28T14:45:07.329Z,1.60
2022-09-28T14:47:45.059Z,1.48
2022-09-28T14:50:33.960Z,1.92
2022-09-28T14:53:21.289Z,1.50
2022-09-28T14:55:51.292Z,1.65
2022-09-28T14:58:26.760Z,1.52
2022-09-28T15:01:00.800Z,1.50
2022-09-28T15:03:29.752Z,1.55
2022-09-28T15:05:56.998Z,1.83
2022-09-28T15:08:24.202Z,1.83
2022-09-28T15:10:51.756Z,1.50
2022-09-28T15:13:25.012Z,1.70
2022-09-28T15:15:54.195Z,1.80
2022-09-28T15:18:42.504Z,2.00
2022-09-28T15:21:10.278Z,1.85
2022-09-28T15:23:41.748Z,2.00
2022-09-28T15:26:20.536Z,1.70
2022-09-28T15:28:47.665Z,1.80
2022-09-28T15:31:35.803Z,1.88
2022-09-28T15:34:21.476Z,2.08
2022-09-28T15:36:49.923Z,2.25
2022-09-28T15:39:21.654Z,1.70
2022-09-28T15:41:50.938Z,2.00
2022-09-28T15:44:32.979Z,2.03
2022-09-28T15:47:11.432Z,2.22
2022-09-28T15:49:47.180Z,2.20
2022-09-28T15:52:26.688Z,2.20
2022-09-28T15:54:54.259Z,1.90
2022-09-28T15:57:33.099Z,2.10
2022-09-28T16:00:00.875Z,2.20
2022-09-28T16:02:28.198Z,2.28
2022-09-28T16:05:00.776Z,1.98
2022-09-28T16:07:30.799Z,1.98
2022-09-28T16:10:01.011Z,1.80
2022-09-28T16:12:31.840Z,1.60
2022-09-28T16:15:00.189Z,1.70
2022-09-28T16:17:35.005Z,1.63
2022-09-28T16:20:03.799Z,1.60
2022-09-28T16:22:32.720Z,1.70
2022-09-28T16:25:00.858Z,2.13
2022-09-28T16:27:42.636Z,1.55
2022-09-28T16:30:24.138Z,1.33
2022-09-28T16:32:56.454Z,1.67
2022-09-28T16:35:28.268Z,1.85
2022-09-28T16:37:57.913Z,1.30
2022-09-28T16:40:25.503Z,1.70
2022-09-28T16:42:54.790Z,1.85
2022-09-28T16:45:23.772Z,1.50
2022-09-28T16:47:53.065Z,1.88
2022-09-28T16:50:21.467Z,1.48
2022-09-28T16:53:09.370Z,1.88
2022-09-28T16:55:40.866Z,1.50
2022-09-28T16:58:08.655Z,1.90
2022-09-28T17:00:36.220Z,2.20
2022-09-28T17:03:05.567Z,2.35
2022-09-28T17:05:32.719Z,1.90
2022-09-28T17:08:03.785Z,2.22
2022-09-28T17:10:30.870Z,1.80
2022-09-28T17:12:59.039Z,2.00
2022-09-28T17:15:26.205Z,2.25
2022-09-28T17:17:53.483Z,1.45
2022-09-28T17:20:26.296Z,2.40
2022-09-28T17:22:53.679Z,1.88
2022-09-28T17:25:22.792Z,1.98
2022-09-28T17:27:50.131Z,1.75
2022-09-28T17:30:18.436Z,1.92
2022-09-28T17:32:47.542Z,1.70
2022-09-28T17:35:24.624Z,2.10
2022-09-28T17:37:52.528Z,1.50
2022-09-28T17:40:28.331Z,2.08
2022-09-28T17:42:56.476Z,1.90
2022-09-28T17:45:28.664Z,1.90
2022-09-28T17:47:56.506Z,1.75
2022-09-28T17:50:29.481Z,2.10
2022-09-28T17:52:59.355Z,2.00
2022-09-28T17:55:28.683Z,1.92
2022-09-28T17:57:56.405Z,2.15
2022-09-28T18:00:27.177Z,2.22
2022-09-28T18:02:58.793Z,1.85
2022-09-28T18:05:29.228Z,3.28
2022-09-28T18:07:58.066Z,2.40
2022-09-28T18:10:26.344Z,2.30
2022-09-28T18:12:53.432Z,2.65
2022-09-28T18:15:20.571Z,3.40
2022-09-28T18:17:47.698Z,2.97
2022-09-28T18:20:15.263Z,3.03
2022-09-28T18:22:42.398Z,2.72
2022-09-28T18:25:09.607Z,2.80
2022-09-28T18:27:36.717Z,2.40
2022-09-28T18:30:04.207Z,2.15
2022-09-28T18:32:31.291Z,2.42
2022-09-28T18:34:58.392Z,1.52
2022-09-28T18:37:25.523Z,1.80
2022-09-28T18:39:52.753Z,1.40
2022-09-28T18:42:20.631Z,1.50
2022-09-28T18:44:47.761Z,1.77
2022-09-28T18:47:15.068Z,1.73
2022-09-28T18:49:46.471Z,1.50
2022-09-28T18:52:13.882Z,1.38
2022-09-28T18:54:41.513Z,1.35
2022-09-28T18:57:08.699Z,1.50
2022-09-28T18:59:35.775Z,1.17
2022-09-28T19:02:03.119Z,1.45
2022-09-28T19:04:31.073Z,1.30
2022-09-28T19:06:58.177Z,1.27
2022-09-28T19:09:26.410Z,1.30
2022-09-28T19:11:53.551Z,1.00
2022-09-28T19:14:20.806Z,1.10
2022-09-28T19:16:48.007Z,1.30
2022-09-28T19:19:16.010Z,1.20
2022-09-28T19:21:43.441Z,1.02
2022-09-28T19:24:13.702Z,1.20
2022-09-28T19:26:41.030Z,1.55
2022-09-28T19:29:08.560Z,1.48
2022-09-28T19:31:35.708Z,1.38
2022-09-28T19:34:02.953Z,1.30
2022-09-28T19:36:30.227Z,1.50
2022-09-28T19:38:58.453Z,1.50
2022-09-28T19:41:44.813Z,1.00
2022-09-28T19:44:21.236Z,1.08
2022-09-28T19:46:48.391Z,1.10
2022-09-28T19:49:22.575Z,1.17
2022-09-28T19:52:11.681Z,1.17
2022-09-28T19:54:38.145Z,0.90
2022-09-28T19:57:07.697Z,0.90
2022-09-28T19:59:35.663Z,1.17
2022-09-28T20:02:03.123Z,1.48
2022-09-28T20:04:30.411Z,0.98
2022-09-28T20:06:57.751Z,1.00
2022-09-28T20:09:24.869Z,1.20
2022-09-28T20:11:53.043Z,1.10
2022-09-28T20:14:22.399Z,1.30
2022-09-28T20:16:51.682Z,1.30
2022-09-28T20:19:21.480Z,1.10
2022-09-28T20:21:48.664Z,1.08
2022-09-28T20:24:17.106Z,1.00
2022-09-28T20:26:44.633Z,1.10
2022-09-28T20:29:11.923Z,1.10
2022-09-28T20:31:39.031Z,1.00
2022-09-28T20:34:06.303Z,0.90
2022-09-28T20:36:33.797Z,0.95
2022-09-28T20:39:04.267Z,0.90
2022-09-28T20:41:34.744Z,1.17
2022-09-28T20:44:05.265Z,1.00
2022-09-28T20:46:33.314Z,1.02
2022-09-28T20:49:00.657Z,0.85
2022-09-28T20:51:27.836Z,1.25
2022-09-28T20:53:55.900Z,0.80
2022-09-28T20:56:26.069Z,0.90
2022-09-28T20:58:53.752Z,0.75
2022-09-28T21:01:22.679Z,0.82
2022-09-28T21:03:51.253Z,1.00
2022-09-28T21:06:19.219Z,1.10
2022-09-28T21:08:46.660Z,0.90
2022-09-28T21:11:14.544Z,0.98
2022-09-28T21:13:42.841Z,0.90
2022-09-28T21:16:15.345Z,1.13
2022-09-28T21:18:42.722Z,1.08
2022-09-28T21:21:10.858Z,0.90
2022-09-28T21:23:38.080Z,1.10
2022-09-28T21:26:31.609Z,0.98
2022-09-28T21:28:59.866Z,1.30
2022-09-28T21:31:29.358Z,1.40
2022-09-28T21:33:57.318Z,0.80
2022-09-28T21:36:24.494Z,1.20
2022-09-28T21:38:51.660Z,1.10
2022-09-28T21:41:18.763Z,1.10
2022-09-28T21:43:46.218Z,0.90
2022-09-28T21:46:13.630Z,1.20
2022-09-28T21:48:40.944Z,1.10
2022-09-28T21:51:09.205Z,0.95
2022-09-28T21:53:37.892Z,1.60
2022-09-28T21:56:06.489Z,1.30
2022-09-28T21:58:34.376Z,1.20
2022-09-28T22:01:07.699Z,1.02
2022-09-28T22:03:35.900Z,1.15
2022-09-28T22:06:04.063Z,0.95
2022-09-28T22:08:31.233Z,1.67
2022-09-28T22:11:01.128Z,0.95
2022-09-28T22:13:29.009Z,1.10
2022-09-28T22:15:57.772Z,1.10
2022-09-28T22:18:25.644Z,0.90
2022-09-28T22:21:08.903Z,0.90
2022-09-28T22:23:36.726Z,0.80
2022-09-28T22:26:03.791Z,0.73
2022-09-28T22:28:31.120Z,0.88
2022-09-28T22:30:58.454Z,0.80
2022-09-28T22:33:25.665Z,0.60
2022-09-28T22:35:52.864Z,0.70
2022-09-28T22:38:20.589Z,0.85
2022-09-28T22:40:55.429Z,0.77
2022-09-28T22:43:23.851Z,0.80
2022-09-28T22:45:51.254Z,0.90
2022-09-28T22:48:18.547Z,0.90
2022-09-28T22:50:49.686Z,0.77
2022-09-28T22:53:16.984Z,0.90
2022-09-28T22:55:44.105Z,0.80
2022-09-28T22:58:11.216Z,0.85
2022-09-28T23:00:38.733Z,0.80
2022-09-28T23:03:06.042Z,0.82
2022-09-28T23:05:33.458Z,0.90
2022-09-28T23:08:00.656Z,0.77
2022-09-28T23:10:27.798Z,0.90
2022-09-28T23:12:55.011Z,0.90
2022-09-28T23:15:22.807Z,1.20
2022-09-28T23:17:53.512Z,1.20
2022-09-28T23:20:21.392Z,1.10
2022-09-28T23:22:48.977Z,1.38
2022-09-28T23:25:17.091Z,1.20
2022-09-28T23:27:51.153Z,1.15
2022-09-28T23:30:19.901Z,1.15
2022-09-28T23:32:47.133Z,1.10
2022-09-28T23:35:14.723Z,1.33
2022-09-28T23:37:41.817Z,1.15
2022-09-28T23:40:09.076Z,1.20
2022-09-28T23:42:36.279Z,1.20
2022-09-28T23:45:03.419Z,1.17
2022-09-28T23:47:30.532Z,1.20
2022-09-28T23:49:57.631Z,1.27
2022-09-28T23:52:24.804Z,1.10
2022-09-28T23:54:51.902Z,1.10
2022-09-28T23:57:18.988Z,1.50
2022-09-28T23:59:46.164Z,1.33
